Nearby METAR Reports

 

KMTN - Baltimore/Martin, Maryland, USA
Distance from station: SSE 8mi, 13km
Updated: Wed, 23-Jul-2014 3:54am EDT
Clear
Clear
 Wind from S
Wind: S 6 mph , 9 km/h
Temperature: 75°F , 24°C
Dew Point: 72°F , 22°C
Humidity: 89%
Barometer: 30.03 inHg , 1016.9 hPa
Clouds: Clear
Visibility: 10 miles , 16 km
2014/07/23 07:54 KMTN 230754Z AUTO 19005KT 10SM CLR 24/22 A3003 RMK AO2
KDMH - Baltimore/Dwntwn, Maryland, USA
Distance from station: SW 12mi, 19km
Updated: Wed, 23-Jul-2014 3:54am EDT

 
Temperature: 73°F , 23°C
Dew Point: 68°F , 20°C
Humidity: 83%
Barometer: 30.03 inHg , 1016.9 hPa
2014/07/23 07:54 KDMH 230754Z AUTO 23/20 A3003 RMK AO1 SLP167 T02330200
 
KBWI - Balto/Wash Intl, Maryland, USA
Distance from station: SSW 20mi, 33km
Updated: Wed, 23-Jul-2014 3:54am EDT
Clear
Clear
 Wind from calm
Wind: Calm
Temperature: 72°F , 22°C
Dew Point: 66°F , 19°C
Humidity: 83%
Barometer: 30.02 inHg , 1016.6 hPa
Clouds: Clear
Visibility: 10 miles , 16 km
2014/07/23 07:54 KBWI 230754Z 00000KT 10SM CLR 22/19 A3002 RMK AO2 SLP163 T02170194
KDMW - Carroll Cnty, Maryland, USA
Distance from station: WNW 30mi, 48km
Updated: Wed, 23-Jul-2014 3:55am EDT
Partly cloudy
Partly cloudy
 Wind from S
Wind: S 6 mph , 9 km/h
Temperature: 72°F , 22°C
Dew Point: 70°F , 21°C
Humidity: 94%
Barometer: 30.04 inHg , 1017.3 hPa
Clouds: Partly cloudy
Visibility: 10 miles , 16 km
Cloud details: Partly cloudy 9000 ft
2014/07/23 07:55 KDMW 230755Z AUTO 19005KT 10SM SCT090 22/21 A3004 RMK AO2
 
KNAK - Annapolis/Naval, Maryland, USA
Distance from station: S 30mi, 48km
Updated: Wed, 23-Jul-2014 3:54am EDT
Clear
Clear
 Wind from SSW
Wind: SSW 6 mph , 9 km/h
Temperature: 73°F , 23°C
Dew Point: 70°F , 21°C
Humidity: 89%
Barometer: 30.02 inHg , 1016.6 hPa
Clouds: Clear
Visibility: 10 miles , 16 km
2014/07/23 07:54 KNAK 230754Z AUTO 21005KT 10SM CLR 23/21 A3002 RMK AO2 SLP166 T02330206
KW29 - Stevensville, Maryland, USA
Distance from station: SSE 31mi, 50km
Updated: Wed, 23-Jul-2014 3:55am EDT

 Wind from S
Wind: S 6 mph , 9 km/h
Temperature: 75°F , 24°C
Dew Point: 70°F , 21°C
Humidity: 83%
Barometer: 30.02 inHg , 1016.6 hPa
Visibility: 10 miles , 16 km
2014/07/23 07:55 KW29 230755Z AUTO 19005KT 10SM 24/21 A3002 RMK AO1
 
KCGS - College Park, Maryland, USA
Distance from station: SW 38mi, 61km
Updated: Wed, 23-Jul-2014 3:55am EDT
Clear
Clear
 Wind from calm
Wind: Calm
Temperature: 73°F , 23°C
Dew Point: 70°F , 21°C
Humidity: 89%
Barometer: 30.02 inHg , 1016.6 hPa
Clouds: Clear
Visibility: 10 miles , 16 km
2014/07/23 07:55 KCGS 230755Z AUTO 00000KT 10SM CLR 23/21 A3002 RMK AO1
KGAI - Gaithersburg, Maryland, USA
Distance from station: WSW 40mi, 65km
Updated: Wed, 23-Jul-2014 3:55am EDT
Clear
Clear
 Wind from SSW
Wind: SSW 3 mph , 6 km/h
Temperature: 72°F , 22°C
Dew Point: 66°F , 19°C
Humidity: 83%
Barometer: 30.07 inHg , 1018.3 hPa
Clouds: Clear
Visibility: 10 miles , 16 km
2014/07/23 07:55 KGAI 230755Z AUTO 20003KT 10SM CLR 22/19 A3007 RMK AO1
 
KTHV - York, Pennsylvania, USA
Distance from station: NNW 40mi, 65km
Updated: Wed, 23-Jul-2014 3:53am EDT
Overcast
Overcast
 Wind from calm
Wind: Calm
Temperature: 72°F , 22°C
Dew Point: 68°F , 20°C
Humidity: 88%
Barometer: 30.01 inHg , 1016.3 hPa
Clouds: Overcast
Visibility: 10 miles , 16 km
Cloud details: Partly cloudy 7000 ft
Overcast 9000 ft
2014/07/23 07:53 KTHV 230753Z AUTO 00000KT 10SM SCT070 OVC090 22/20 A3001 RMK AO2 SLP159 T02220200
KFDK - Frederick, Maryland, USA
Distance from station: W 47mi, 75km
Updated: Wed, 23-Jul-2014 3:55am EDT
Clear
Clear
 Wind from calm
Wind: Calm
Temperature: 70°F , 21°C
Dew Point: 70°F , 21°C
Humidity: 100%
Barometer: 30.05 inHg , 1017.6 hPa
Clouds: Clear
Visibility: 10 miles , 16 km
2014/07/23 07:55 KFDK 230755Z AUTO 00000KT 10SM CLR 21/21 A3005 RMK AO2 LTG DSNT NW
 
KESN - Easton/Newnam, Maryland, USA
Distance from station: SSE 48mi, 78km
Updated: Wed, 23-Jul-2014 4:06am EDT
Clear
Clear
 Wind from calm
Wind: Calm
Temperature: 73°F , 23°C
Dew Point: 73°F , 23°C
Humidity: 100%
Barometer: 30.07 inHg , 1018.3 hPa
Clouds: Clear
Visibility: 10 miles , 16 km
2014/07/23 08:06 KESN 230806Z AUTO 00000KT 10SM CLR 23/23 A3007 RMK AO2 T02260226
KDCA - Washington/Natl, Washington D.c., USA
Distance from station: SW 49mi, 79km
Updated: Wed, 23-Jul-2014 3:52am EDT
Partly cloudy
Partly cloudy
 Wind from S
Wind: S 8 mph , 13 km/h
Temperature: 75°F , 24°C
Dew Point: 70°F , 21°C
Humidity: 83%
Barometer: 30.03 inHg , 1016.9 hPa
Clouds: Partly cloudy
Visibility: 10 miles , 16 km
Cloud details: Partly cloudy 25000 ft
2014/07/23 07:52 KDCA 230752Z 19007KT 10SM SCT250 24/21 A3003 RMK AO2 SLP168 T02440206
 
KLNS - Lancaster, Pennsylvania, USA
Distance from station: N 49mi, 79km
Updated: Wed, 23-Jul-2014 3:53am EDT
Clear
Clear
 Wind from S
Wind: S 3 mph , 6 km/h
Temperature: 70°F , 21°C
Dew Point: 64°F , 18°C
Humidity: 83%
Barometer: 30.02 inHg , 1016.6 hPa
Clouds: Clear
Visibility: 10 miles , 16 km
2014/07/23 07:53 KLNS 230753Z 18003KT 10SM CLR 21/18 A3002 RMK AO2 SLP161 T02060183
KILG - Wilmington, Delaware, USA
Distance from station: ENE 50mi, 81km
Updated: Wed, 23-Jul-2014 3:51am EDT
Clear
Clear
 Wind from S
Wind: S 6 mph , 9 km/h
Temperature: 72°F , 22°C
Dew Point: 66°F , 19°C
Humidity: 83%
Barometer: 30.02 inHg , 1016.6 hPa
Clouds: Clear
Visibility: 10 miles , 16 km
2014/07/23 07:51 KILG 230751Z 18005KT 10SM CLR 22/19 A3002 RMK AO2 SLP165 T02170189